Time;durP1;ratioP1;P1;durP2;ratioP2;P2;SDS_P1;SDS_P2;PMS_P1;PMS_P2;Temp;Humidity;BMP_temperature;BMP_pressure;BME280_temperature;BME280_humidity;BME280_pressure;Samples;Min_cycle;Max_cycle;Signal;HPM_P1;HPM_P2
2021/11/22 00:00:01;;;;;;;1.52;0.52;;;;;;;;;;5064986;28;20025;-77
2021/11/22 00:02:27;;;;;;;2.92;0.50;;;;;;;;;;5046541;28;20029;-77
2021/11/22 00:04:53;;;;;;;1.23;0.40;;;;;;;;;;5065062;28;20024;-77
2021/11/22 00:07:18;;;;;;;1.38;0.40;;;;;;;;;;5046875;28;20068;-77
2021/11/22 00:09:44;;;;;;;1.85;0.70;;;;;;;;;;5065139;28;20025;-76
2021/11/22 00:12:10;;;;;;;2.38;0.40;;;;;;;;;;5064711;28;20037;-77
2021/11/22 00:14:36;;;;;;;1.00;0.50;;;;;;;;;;5064407;28;20074;-78
2021/11/22 00:17:02;;;;;;;1.02;0.52;;;;;;;;;;5064550;28;20033;-77
2021/11/22 00:19:27;;;;;;;0.75;0.40;;;;;;;;;;5064986;28;20020;-76
2021/11/22 00:21:53;;;;;;;0.57;0.47;;;;;;;;;;5046186;28;20102;-77
2021/11/22 00:24:19;;;;;;;1.45;0.40;;;;;;;;;;5064668;28;20083;-76
2021/11/22 00:26:44;;;;;;;1.13;0.40;;;;;;;;;;5063496;28;20045;-77
2021/11/22 00:29:10;;;;;;;1.95;0.52;;;;;;;;;;5064731;28;20058;-77
2021/11/22 00:31:35;;;;;;;1.95;0.40;;;;;;;;;;5064538;28;20037;-76
2021/11/22 00:34:01;;;;;;;2.58;0.50;;;;;;;;;;5064474;28;20081;-76
2021/11/22 00:36:27;;;;;;;1.00;0.52;;;;;;;;;;5064461;28;20029;-77
2021/11/22 00:38:52;;;;;;;1.33;0.57;;;;;;;;;;5064583;28;20021;-77
2021/11/22 00:41:18;;;;;;;3.47;0.70;;;;;;;;;;5046253;28;20044;-77
2021/11/22 00:43:43;;;;;;;2.00;0.40;;;;;;;;;;5064181;28;20049;-77
2021/11/22 00:46:09;;;;;;;4.22;0.60;;;;;;;;;;5064127;28;20055;-77
2021/11/22 00:48:35;;;;;;;3.25;0.60;;;;;;;;;;5064559;28;20028;-76
2021/11/22 00:51:01;;;;;;;2.13;0.55;;;;;;;;;;5046734;28;20699;-76
2021/11/22 00:53:29;;;;;;;2.78;0.63;;;;;;;;;;5064244;28;20043;-76
2021/11/22 00:55:54;;;;;;;4.05;0.52;;;;;;;;;;5064456;28;20024;-76
2021/11/22 00:58:20;;;;;;;5.68;0.70;;;;;;;;;;5064367;28;20028;-76
2021/11/22 01:00:45;;;;;;;2.33;0.70;;;;;;;;;;5063552;28;20029;-75
2021/11/22 01:03:11;;;;;;;2.30;0.60;;;;;;;;;;5064298;28;20030;-75
2021/11/22 01:05:36;;;;;;;4.15;0.85;;;;;;;;;;5063807;28;20036;-76
2021/11/22 01:08:04;;;;;;;2.00;0.50;;;;;;;;;;5063551;28;20025;-77
2021/11/22 01:10:30;;;;;;;1.23;0.50;;;;;;;;;;5045701;28;20032;-76
2021/11/22 01:12:56;;;;;;;1.10;0.80;;;;;;;;;;5063919;28;20021;-75
2021/11/22 01:15:23;;;;;;;3.72;0.93;;;;;;;;;;5045799;28;20033;-76
2021/11/22 01:17:50;;;;;;;4.07;0.80;;;;;;;;;;5045264;28;20021;-76
2021/11/22 01:20:18;;;;;;;1.05;0.40;;;;;;;;;;5063366;28;20025;-77
2021/11/22 01:22:46;;;;;;;1.02;0.57;;;;;;;;;;5063172;28;20021;-76
2021/11/22 01:25:13;;;;;;;0.82;0.50;;;;;;;;;;5063501;28;20036;-76
2021/11/22 01:27:39;;;;;;;5.35;0.93;;;;;;;;;;5063245;28;20044;-76
2021/11/22 01:30:08;;;;;;;1.67;0.60;;;;;;;;;;5062965;28;20061;-76
2021/11/22 01:32:34;;;;;;;3.90;0.80;;;;;;;;;;5063278;28;20029;-76
2021/11/22 01:35:00;;;;;;;1.55;0.80;;;;;;;;;;5062857;28;20036;-76
2021/11/22 01:37:25;;;;;;;2.10;0.50;;;;;;;;;;5062550;28;20122;-77
2021/11/22 01:39:51;;;;;;;0.90;0.40;;;;;;;;;;5044326;28;20053;-77
2021/11/22 01:42:16;;;;;;;2.85;0.77;;;;;;;;;;5062745;28;20048;-76
2021/11/22 01:44:42;;;;;;;1.90;0.50;;;;;;;;;;5063235;28;20033;-76
2021/11/22 01:47:07;;;;;;;2.33;0.50;;;;;;;;;;5062818;28;20025;-76
2021/11/22 01:49:32;;;;;;;0.73;0.40;;;;;;;;;;5062747;28;20052;-76
2021/11/22 01:51:58;;;;;;;2.88;0.68;;;;;;;;;;5062857;28;20025;-77
2021/11/22 01:54:23;;;;;;;1.70;0.68;;;;;;;;;;5062686;28;20033;-77
2021/11/22 01:56:49;;;;;;;1.63;0.55;;;;;;;;;;5063105;28;20249;-78
2021/11/22 01:59:16;;;;;;;1.42;0.60;;;;;;;;;;5062897;28;20037;-76
2021/11/22 02:01:42;;;;;;;2.20;0.65;;;;;;;;;;5062554;28;20092;-77
2021/11/22 02:04:08;;;;;;;5.03;1.67;;;;;;;;;;5044736;28;20040;-77
2021/11/22 02:06:33;;;;;;;2.25;0.65;;;;;;;;;;5062782;28;20059;-77
2021/11/22 02:08:59;;;;;;;0.80;0.47;;;;;;;;;;5063055;28;20021;-77
2021/11/22 02:11:24;;;;;;;3.88;0.75;;;;;;;;;;5044979;28;20033;-77
2021/11/22 02:13:50;;;;;;;1.60;0.60;;;;;;;;;;5062981;28;20025;-77
2021/11/22 02:16:16;;;;;;;1.42;0.77;;;;;;;;;;5062764;28;20028;-77
2021/11/22 02:18:43;;;;;;;2.55;0.70;;;;;;;;;;5062571;28;20045;-76
2021/11/22 02:21:08;;;;;;;2.28;0.70;;;;;;;;;;5044467;28;20124;-77
2021/11/22 02:23:35;;;;;;;0.45;0.40;;;;;;;;;;5062761;28;20033;-74
2021/11/22 02:26:00;;;;;;;4.25;0.55;;;;;;;;;;5044072;28;20076;-76
2021/11/22 02:28:26;;;;;;;1.80;0.75;;;;;;;;;;5044491;28;20036;-74
2021/11/22 02:30:53;;;;;;;3.53;0.68;;;;;;;;;;5062416;28;20053;-76
2021/11/22 02:33:23;;;;;;;1.52;0.60;;;;;;;;;;5044992;28;20036;-76
2021/11/22 02:35:51;;;;;;;1.42;0.50;;;;;;;;;;5044511;28;20059;-76
2021/11/22 02:38:19;;;;;;;2.38;0.60;;;;;;;;;;5044371;28;20127;-76
2021/11/22 02:40:44;;;;;;;1.15;0.57;;;;;;;;;;5062835;28;20098;-76
2021/11/22 02:43:10;;;;;;;2.75;0.73;;;;;;;;;;5062822;28;20024;-77
2021/11/22 02:45:35;;;;;;;1.45;0.60;;;;;;;;;;5062288;28;20056;-75
2021/11/22 02:48:01;;;;;;;1.02;0.52;;;;;;;;;;5062709;28;20064;-74
2021/11/22 02:50:26;;;;;;;1.73;0.57;;;;;;;;;;5064416;28;20081;-76
2021/11/22 02:52:52;;;;;;;0.75;0.50;;;;;;;;;;5048280;28;20025;-76
2021/11/22 02:55:19;;;;;;;2.85;0.50;;;;;;;;;;5066287;28;20021;-74
2021/11/22 02:57:45;;;;;;;1.73;0.57;;;;;;;;;;5065755;28;20062;-75
2021/11/22 03:00:23;;;;;;;3.75;0.93;;;;;;;;;;5047767;28;20032;-77
2021/11/22 03:02:49;;;;;;;2.00;0.60;;;;;;;;;;5047836;28;20381;-75
2021/11/22 03:05:15;;;;;;;2.25;0.77;;;;;;;;;;5065598;28;20045;-76
2021/11/22 03:07:41;;;;;;;2.50;0.52;;;;;;;;;;5065574;28;20032;-76
2021/11/22 03:10:09;;;;;;;3.33;0.60;;;;;;;;;;5065971;28;20043;-75
2021/11/22 03:12:35;;;;;;;3.42;0.50;;;;;;;;;;5065879;28;20052;-75
2021/11/22 03:15:03;;;;;;;1.05;0.55;;;;;;;;;;5065768;28;20038;-75
2021/11/22 03:17:28;;;;;;;1.75;0.52;;;;;;;;;;5065700;28;20406;-78
2021/11/22 03:19:54;;;;;;;1.15;0.50;;;;;;;;;;5047702;28;20064;-77
2021/11/22 03:22:19;;;;;;;1.85;0.60;;;;;;;;;;5065497;28;20036;-77
2021/11/22 03:24:44;;;;;;;0.77;0.47;;;;;;;;;;5065836;28;20021;-77
2021/11/22 03:27:10;;;;;;;0.75;0.52;;;;;;;;;;5047277;28;20037;-77
2021/11/22 03:29:36;;;;;;;1.85;0.63;;;;;;;;;;5065927;28;20021;-76
2021/11/22 03:32:02;;;;;;;0.65;0.43;;;;;;;;;;5065402;28;20035;-76
2021/11/22 03:34:28;;;;;;;2.10;0.63;;;;;;;;;;5065171;28;20359;-76
2021/11/22 03:36:59;;;;;;;4.22;0.63;;;;;;;;;;5047207;28;20539;-77
2021/11/22 03:39:26;;;;;;;0.60;0.50;;;;;;;;;;5065142;28;20517;-76
2021/11/22 03:41:54;;;;;;;0.75;0.38;;;;;;;;;;5064973;28;20034;-76
2021/11/22 03:44:20;;;;;;;1.13;0.60;;;;;;;;;;5065356;28;20021;-76
2021/11/22 03:46:48;;;;;;;2.55;0.57;;;;;;;;;;5064984;28;20102;-76
2021/11/22 03:49:14;;;;;;;1.70;0.40;;;;;;;;;;5065307;28;20035;-75
2021/11/22 03:51:40;;;;;;;1.88;0.52;;;;;;;;;;5064662;28;20029;-75
2021/11/22 03:54:06;;;;;;;3.10;0.70;;;;;;;;;;5047059;28;20025;-76
2021/11/22 03:56:32;;;;;;;1.73;0.50;;;;;;;;;;5046861;28;20043;-76
2021/11/22 03:58:57;;;;;;;0.98;0.60;;;;;;;;;;5064465;28;20128;-76
2021/11/22 04:01:23;;;;;;;1.70;0.80;;;;;;;;;;5062664;28;20043;-76
2021/11/22 04:03:49;;;;;;;2.13;0.60;;;;;;;;;;5064414;28;20021;-76
2021/11/22 04:06:15;;;;;;;1.38;0.60;;;;;;;;;;5064342;28;20028;-77
2021/11/22 04:08:41;;;;;;;1.80;0.57;;;;;;;;;;5046434;28;20032;-76
2021/11/22 04:11:07;;;;;;;1.05;0.40;;;;;;;;;;5046867;28;20085;-76
2021/11/22 04:13:32;;;;;;;0.57;0.50;;;;;;;;;;5046940;28;20029;-75
2021/11/22 04:16:00;;;;;;;2.17;0.50;;;;;;;;;;5046657;28;20088;-76
2021/11/22 04:18:26;;;;;;;1.25;0.60;;;;;;;;;;5046625;28;20028;-76
2021/11/22 04:20:54;;;;;;;1.83;0.50;;;;;;;;;;5045988;28;20021;-76
2021/11/22 04:23:19;;;;;;;2.08;0.47;;;;;;;;;;5046236;28;20029;-75
2021/11/22 04:25:45;;;;;;;0.60;0.50;;;;;;;;;;5063488;28;20091;-77
2021/11/22 04:28:10;;;;;;;2.40;0.45;;;;;;;;;;5064865;28;20029;-76
2021/11/22 04:30:38;;;;;;;3.08;0.47;;;;;;;;;;5045915;28;20516;-78
2021/11/22 04:33:04;;;;;;;1.88;0.40;;;;;;;;;;5046278;28;20207;-76
2021/11/22 04:35:30;;;;;;;0.98;0.40;;;;;;;;;;5063932;28;20029;-76
2021/11/22 04:37:56;;;;;;;1.95;0.30;;;;;;;;;;5046224;28;20025;-76
2021/11/22 04:40:22;;;;;;;1.02;0.47;;;;;;;;;;5063468;28;20025;-76
2021/11/22 04:42:48;;;;;;;1.45;0.38;;;;;;;;;;5045896;28;20394;-76
2021/11/22 04:45:16;;;;;;;2.63;0.60;;;;;;;;;;5064369;28;20025;-76
2021/11/22 04:47:42;;;;;;;1.00;0.40;;;;;;;;;;5063983;28;20096;-77
2021/11/22 04:50:08;;;;;;;1.42;0.60;;;;;;;;;;5064452;28;20025;-76
2021/11/22 04:52:35;;;;;;;1.45;0.55;;;;;;;;;;5064348;28;20025;-76
2021/11/22 04:55:00;;;;;;;0.45;0.30;;;;;;;;;;5045847;28;20115;-76
2021/11/22 04:57:26;;;;;;;1.05;0.68;;;;;;;;;;5063825;28;20021;-78
2021/11/22 04:59:51;;;;;;;0.40;0.30;;;;;;;;;;5063802;28;20107;-76
2021/11/22 05:02:17;;;;;;;1.33;0.47;;;;;;;;;;5063682;28;20090;-78
2021/11/22 05:04:42;;;;;;;0.98;0.57;;;;;;;;;;5063933;28;20027;-76
2021/11/22 05:07:08;;;;;;;1.85;0.70;;;;;;;;;;5063878;28;20029;-76
2021/11/22 05:09:34;;;;;;;0.55;0.50;;;;;;;;;;5045941;28;20025;-77
2021/11/22 05:11:59;;;;;;;0.85;0.60;;;;;;;;;;5046065;28;20029;-76
2021/11/22 05:14:24;;;;;;;1.63;0.57;;;;;;;;;;5045970;28;20021;-79
2021/11/22 05:16:51;;;;;;;4.47;0.70;;;;;;;;;;5063754;28;20039;-78
2021/11/22 05:19:16;;;;;;;1.23;0.57;;;;;;;;;;5045738;28;20029;-76
2021/11/22 05:21:42;;;;;;;1.85;0.60;;;;;;;;;;5063482;28;20040;-76
2021/11/22 05:24:08;;;;;;;1.70;0.60;;;;;;;;;;5063843;28;20025;-76
2021/11/22 05:26:34;;;;;;;0.90;0.60;;;;;;;;;;5063148;28;20202;-77
2021/11/22 05:29:04;;;;;;;1.80;0.70;;;;;;;;;;5045755;28;20039;-77
2021/11/22 05:31:31;;;;;;;2.53;0.80;;;;;;;;;;5063497;28;20037;-76
2021/11/22 05:33:56;;;;;;;2.25;0.80;;;;;;;;;;5064032;28;20025;-76
2021/11/22 05:36:22;;;;;;;3.10;0.70;;;;;;;;;;5063346;28;20364;-76
2021/11/22 05:38:48;;;;;;;0.70;0.52;;;;;;;;;;5063536;28;20405;-76
2021/11/22 05:41:14;;;;;;;2.60;0.73;;;;;;;;;;5045502;28;20033;-77
2021/11/22 05:43:40;;;;;;;2.80;0.88;;;;;;;;;;5063144;28;20081;-76
2021/11/22 05:46:08;;;;;;;1.42;0.45;;;;;;;;;;5045010;28;20097;-76
2021/11/22 05:48:34;;;;;;;2.33;0.70;;;;;;;;;;5063465;28;20037;-77
2021/11/22 05:51:04;;;;;;;3.70;0.70;;;;;;;;;;5062876;28;20025;-76
2021/11/22 05:53:38;;;;;;;2.13;0.63;;;;;;;;;;5044921;28;20036;-76
2021/11/22 05:56:05;;;;;;;2.40;0.50;;;;;;;;;;5063113;28;20028;-76
2021/11/22 05:58:31;;;;;;;0.90;0.40;;;;;;;;;;5044770;28;20044;-77
2021/11/22 06:01:02;;;;;;;1.40;0.60;;;;;;;;;;5062589;28;20031;-76
2021/11/22 06:03:28;;;;;;;0.77;0.60;;;;;;;;;;5044726;28;20100;-76
2021/11/22 06:05:55;;;;;;;1.67;0.65;;;;;;;;;;5044961;28;20032;-76
2021/11/22 06:08:21;;;;;;;0.68;0.45;;;;;;;;;;5045434;28;20029;-76
2021/11/22 06:10:48;;;;;;;2.08;0.60;;;;;;;;;;5062662;28;20500;-77
2021/11/22 06:13:15;;;;;;;2.13;0.70;;;;;;;;;;5044752;28;20036;-75
2021/11/22 06:15:41;;;;;;;1.70;0.57;;;;;;;;;;5044865;28;20047;-76
2021/11/22 06:18:06;;;;;;;0.80;0.60;;;;;;;;;;5063177;28;20029;-77
2021/11/22 06:20:32;;;;;;;2.13;0.75;;;;;;;;;;5063114;28;20067;-77
2021/11/22 06:22:57;;;;;;;0.90;0.73;;;;;;;;;;5063017;28;20032;-76
2021/11/22 06:25:23;;;;;;;2.10;0.90;;;;;;;;;;5063399;28;20040;-76
2021/11/22 06:27:49;;;;;;;1.40;0.85;;;;;;;;;;5042823;28;20056;-76
2021/11/22 06:30:15;;;;;;;1.58;0.90;;;;;;;;;;5045183;28;20067;-76
2021/11/22 06:32:40;;;;;;;4.25;0.70;;;;;;;;;;5043490;28;20030;-76
2021/11/22 06:35:06;;;;;;;2.20;0.85;;;;;;;;;;5045558;28;20348;-76
2021/11/22 06:37:34;;;;;;;1.65;0.47;;;;;;;;;;5043948;28;20025;-75
2021/11/22 06:40:00;;;;;;;1.42;0.50;;;;;;;;;;5044957;28;20029;-77
2021/11/22 06:42:25;;;;;;;2.50;0.50;;;;;;;;;;5044932;28;20034;-76
2021/11/22 06:44:51;;;;;;;3.83;0.80;;;;;;;;;;5045328;28;20032;-76
2021/11/22 06:47:17;;;;;;;2.58;0.60;;;;;;;;;;5042468;28;20029;-76
2021/11/22 06:49:43;;;;;;;2.28;0.52;;;;;;;;;;5044235;28;20072;-77
2021/11/22 06:52:09;;;;;;;3.50;0.50;;;;;;;;;;5042926;28;20117;-75
2021/11/22 06:54:34;;;;;;;0.70;0.50;;;;;;;;;;5044502;28;20037;-76
2021/11/22 06:57:01;;;;;;;1.58;0.65;;;;;;;;;;5043771;28;20051;-76
2021/11/22 06:59:28;;;;;;;3.33;0.60;;;;;;;;;;5045182;28;20390;-76
2021/11/22 07:01:55;;;;;;;1.80;0.60;;;;;;;;;;5044666;28;20029;-77
2021/11/22 07:04:20;;;;;;;1.40;0.68;;;;;;;;;;5043912;28;20029;-76
2021/11/22 07:06:46;;;;;;;0.90;0.60;;;;;;;;;;5043445;28;20121;-75
2021/11/22 07:09:11;;;;;;;3.85;0.70;;;;;;;;;;5044894;28;20025;-75
2021/11/22 07:11:37;;;;;;;2.92;0.80;;;;;;;;;;5043397;28;20032;-77
2021/11/22 07:14:04;;;;;;;2.05;0.90;;;;;;;;;;5044949;28;20398;-75
2021/11/22 07:16:31;;;;;;;0.98;0.60;;;;;;;;;;5043824;28;20045;-75
2021/11/22 07:18:57;;;;;;;1.52;0.52;;;;;;;;;;5043272;28;20112;-76
2021/11/22 07:21:23;;;;;;;1.10;0.80;;;;;;;;;;5044821;28;20111;-76
2021/11/22 07:23:48;;;;;;;3.28;1.27;;;;;;;;;;5044711;28;20029;-75
2021/11/22 07:26:14;;;;;;;5.60;1.95;;;;;;;;;;5006429;28;1204445;-76
2021/11/22 07:28:39;;;;;;;6.03;2.47;;;;;;;;;;5064970;28;20033;-75
2021/11/22 07:31:05;;;;;;;5.97;2.10;;;;;;;;;;5065836;28;20048;-76
2021/11/22 07:33:30;;;;;;;3.50;2.00;;;;;;;;;;5065428;28;20088;-75
2021/11/22 07:35:55;;;;;;;6.80;2.15;;;;;;;;;;5065383;28;20025;-75
2021/11/22 07:38:21;;;;;;;4.75;2.03;;;;;;;;;;5047343;28;20047;-75
2021/11/22 07:40:47;;;;;;;4.43;1.70;;;;;;;;;;5065190;28;20101;-76
2021/11/22 07:43:15;;;;;;;4.60;1.60;;;;;;;;;;5065004;28;20028;-75
2021/11/22 07:45:41;;;;;;;3.47;1.45;;;;;;;;;;5047118;28;20024;-75
2021/11/22 07:48:06;;;;;;;3.50;1.25;;;;;;;;;;5047150;28;20063;-75
2021/11/22 07:50:32;;;;;;;4.57;1.40;;;;;;;;;;5047189;28;20053;-75
2021/11/22 07:52:57;;;;;;;4.15;1.40;;;;;;;;;;5065003;28;20071;-75
2021/11/22 07:55:23;;;;;;;5.70;1.45;;;;;;;;;;5065415;28;20045;-76
2021/11/22 07:57:54;;;;;;;2.55;1.23;;;;;;;;;;5047034;28;20041;-76
2021/11/22 08:00:22;;;;;;;2.90;1.13;;;;;;;;;;5047116;28;20102;-75
2021/11/22 08:02:48;;;;;;;1.70;0.95;;;;;;;;;;5046958;28;20420;-75
2021/11/22 08:05:14;;;;;;;6.85;1.55;;;;;;;;;;5064621;28;20037;-77
2021/11/22 08:07:42;;;;;;;2.58;1.33;;;;;;;;;;5064591;28;20021;-75
2021/11/22 08:12:56;;;;;;;2.25;1.13;;;;;;;;;;5064825;28;20030;-75
2021/11/22 08:15:22;;;;;;;4.03;1.50;;;;;;;;;;5046537;28;20052;-76
2021/11/22 08:17:49;;;;;;;4.40;2.00;;;;;;;;;;5044446;28;20037;-75
2021/11/22 08:20:16;;;;;;;2.40;1.48;;;;;;;;;;5062910;28;20029;-76
2021/11/22 08:22:44;;;;;;;3.10;1.40;;;;;;;;;;5045942;28;20119;-76
2021/11/22 08:25:10;;;;;;;4.05;1.40;;;;;;;;;;5046007;28;20075;-76
2021/11/22 08:27:36;;;;;;;2.63;1.30;;;;;;;;;;5045687;28;20045;-75
2021/11/22 08:30:07;;;;;;;2.25;1.15;;;;;;;;;;5046057;28;20017;-76
2021/11/22 08:32:33;;;;;;;2.67;1.33;;;;;;;;;;5064094;28;20040;-75
2021/11/22 08:34:58;;;;;;;3.90;1.10;;;;;;;;;;5046137;28;20127;-76
2021/11/22 08:37:24;;;;;;;1.45;0.95;;;;;;;;;;5046353;28;20052;-75
2021/11/22 08:39:49;;;;;;;1.92;0.98;;;;;;;;;;5046079;28;20048;-75
2021/11/22 08:42:15;;;;;;;2.97;1.10;;;;;;;;;;5063503;28;20025;-75
2021/11/22 08:44:41;;;;;;;3.80;1.58;;;;;;;;;;5063846;28;20025;-76
2021/11/22 08:47:07;;;;;;;4.05;0.90;;;;;;;;;;5045624;28;20469;-76
2021/11/22 08:49:32;;;;;;;1.50;0.80;;;;;;;;;;5045790;28;20092;-77
2021/11/22 08:51:59;;;;;;;0.98;0.60;;;;;;;;;;5063981;28;20048;-75
2021/11/22 08:54:25;;;;;;;1.33;0.73;;;;;;;;;;5063999;28;20055;-75
2021/11/22 08:56:50;;;;;;;1.38;0.50;;;;;;;;;;5063655;28;20092;-75
2021/11/22 08:59:16;;;;;;;4.10;0.80;;;;;;;;;;5045702;28;20021;-75
2021/11/22 09:01:42;;;;;;;1.55;0.70;;;;;;;;;;5063410;28;20031;-75
2021/11/22 09:04:08;;;;;;;2.63;1.20;;;;;;;;;;5063835;28;20024;-75
2021/11/22 09:06:34;;;;;;;4.85;1.13;;;;;;;;;;5063538;28;20035;-75
2021/11/22 09:09:04;;;;;;;1.63;0.90;;;;;;;;;;5045474;28;20032;-75
2021/11/22 09:11:31;;;;;;;1.60;1.05;;;;;;;;;;5045874;28;20029;-75
2021/11/22 09:13:57;;;;;;;2.20;1.05;;;;;;;;;;5064041;28;20029;-75
2021/11/22 09:16:27;;;;;;;4.07;1.20;;;;;;;;;;5044683;28;20029;-75
2021/11/22 09:18:54;;;;;;;3.42;1.15;;;;;;;;;;5045135;28;20032;-75
2021/11/22 09:21:20;;;;;;;3.60;0.90;;;;;;;;;;5062917;28;20040;-76
2021/11/22 09:23:47;;;;;;;1.40;0.88;;;;;;;;;;5063928;28;20033;-75
2021/11/22 09:26:13;;;;;;;3.08;0.90;;;;;;;;;;5045290;28;20041;-75
2021/11/22 09:28:38;;;;;;;1.00;0.80;;;;;;;;;;5063907;28;20052;-75
2021/11/22 09:31:05;;;;;;;1.30;0.60;;;;;;;;;;5045345;28;20062;-75
2021/11/22 09:33:31;;;;;;;0.77;0.60;;;;;;;;;;5045626;28;20045;-75
2021/11/22 09:35:57;;;;;;;1.15;0.60;;;;;;;;;;5063205;28;20065;-75
2021/11/22 09:38:23;;;;;;;1.23;0.60;;;;;;;;;;5063093;28;20036;-75
2021/11/22 09:40:48;;;;;;;1.83;0.50;;;;;;;;;;5062865;28;20055;-76
2021/11/22 09:43:14;;;;;;;1.80;0.40;;;;;;;;;;5063103;28;20029;-75
2021/11/22 09:45:39;;;;;;;3.58;0.47;;;;;;;;;;5063239;28;20029;-75
2021/11/22 09:48:05;;;;;;;1.58;0.60;;;;;;;;;;5063225;28;20044;-75
2021/11/22 09:50:32;;;;;;;4.40;0.40;;;;;;;;;;5062748;28;20033;-75
2021/11/22 09:52:59;;;;;;;0.32;0.20;;;;;;;;;;5063550;28;20028;-74
2021/11/22 09:55:29;;;;;;;1.45;0.40;;;;;;;;;;5045169;28;20477;-74
2021/11/22 09:57:59;;;;;;;0.57;0.20;;;;;;;;;;5045160;28;20029;-75
2021/11/22 10:00:47;;;;;;;0.50;0.20;;;;;;;;;;5064784;28;20029;-75
2021/11/22 10:03:22;;;;;;;0.88;0.40;;;;;;;;;;5048999;28;20049;-74
2021/11/22 10:05:53;;;;;;;3.60;0.43;;;;;;;;;;5066865;28;20037;-75
2021/11/22 10:08:22;;;;;;;0.25;0.20;;;;;;;;;;5049155;28;20521;-75
2021/11/22 10:10:54;;;;;;;1.42;0.43;;;;;;;;;;5067104;28;20032;-75
2021/11/22 10:13:20;;;;;;;0.43;0.30;;;;;;;;;;5066964;28;20028;-74
2021/11/22 10:15:45;;;;;;;0.73;0.20;;;;;;;;;;5067174;28;20032;-75
2021/11/22 10:18:18;;;;;;;1.60;0.40;;;;;;;;;;5048947;28;20433;-74
2021/11/22 10:20:44;;;;;;;0.35;0.20;;;;;;;;;;5048821;28;20028;-75
2021/11/22 10:23:12;;;;;;;0.80;0.20;;;;;;;;;;5048843;28;20402;-75
2021/11/22 10:25:41;;;;;;;3.80;0.30;;;;;;;;;;5048311;28;20029;-75
2021/11/22 10:28:06;;;;;;;1.25;0.30;;;;;;;;;;5066340;28;20128;-75
2021/11/22 10:30:34;;;;;;;0.15;0.15;;;;;;;;;;5066345;28;20169;-75
2021/11/22 10:33:03;;;;;;;0.13;0.13;;;;;;;;;;5048525;28;20055;-75
2021/11/22 10:35:32;;;;;;;1.33;0.40;;;;;;;;;;5066722;28;20028;-75
2021/11/22 10:38:12;;;;;;;0.13;0.13;;;;;;;;;;5066650;28;20039;-75
2021/11/22 10:40:40;;;;;;;2.17;0.30;;;;;;;;;;5066544;28;20021;-75
2021/11/22 10:43:06;;;;;;;0.60;0.30;;;;;;;;;;5066627;28;20364;-75
2021/11/22 10:45:42;;;;;;;0.20;0.20;;;;;;;;;;5065789;28;20400;-76
2021/11/22 10:48:37;;;;;;;0.52;0.30;;;;;;;;;;5066311;28;20040;-75
2021/11/22 10:51:08;;;;;;;1.27;0.88;;;;;;;;;;5048997;28;20083;-74
2021/11/22 10:53:46;;;;;;;2.03;0.40;;;;;;;;;;5066501;28;20128;-75
2021/11/22 10:56:14;;;;;;;0.38;0.20;;;;;;;;;;5066172;28;20088;-74
2021/11/22 10:58:47;;;;;;;0.10;0.10;;;;;;;;;;5048813;28;20407;-75
2021/11/22 11:01:19;;;;;;;1.95;0.25;;;;;;;;;;5048312;28;20036;-74
2021/11/22 11:03:57;;;;;;;2.47;0.43;;;;;;;;;;5066542;28;20037;-74
2021/11/22 11:07:14;;;;;;;0.95;0.40;;;;;;;;;;5048361;28;20381;-74
2021/11/22 11:09:41;;;;;;;0.38;0.22;;;;;;;;;;5022991;28;20424;-74
2021/11/22 11:12:07;;;;;;;0.90;0.30;;;;;;;;;;5047798;28;20040;-75
2021/11/22 11:14:34;;;;;;;1.13;0.20;;;;;;;;;;5065981;28;20033;-74
2021/11/22 11:17:28;;;;;;;0.20;0.20;;;;;;;;;;5065484;28;20028;-75
2021/11/22 11:19:56;;;;;;;0.55;0.30;;;;;;;;;;4993965;28;20255;-75
2021/11/22 11:22:26;;;;;;;0.10;0.10;;;;;;;;;;5065807;28;20029;-75
2021/11/22 11:24:52;;;;;;;0.30;0.30;;;;;;;;;;5065917;28;20025;-75
2021/11/22 11:27:18;;;;;;;0.40;0.30;;;;;;;;;;5065468;28;20143;-74
2021/11/22 11:29:44;;;;;;;0.20;0.20;;;;;;;;;;5065965;28;20110;-74
2021/11/22 11:32:10;;;;;;;0.68;0.30;;;;;;;;;;5065595;28;20068;-74
2021/11/22 11:34:42;;;;;;;0.30;0.20;;;;;;;;;;5047531;28;20036;-75
2021/11/22 11:37:41;;;;;;;1.45;0.20;;;;;;;;;;5065590;28;20067;-75
2021/11/22 11:40:24;;;;;;;2.78;0.40;;;;;;;;;;5047733;28;20059;-74
2021/11/22 11:43:08;;;;;;;0.13;0.13;;;;;;;;;;5065643;28;20084;-75
2021/11/22 11:45:46;;;;;;;2.13;0.40;;;;;;;;;;5065280;28;20032;-75
2021/11/22 11:48:36;;;;;;;0.20;0.20;;;;;;;;;;5065760;28;20539;-75
2021/11/22 11:51:19;;;;;;;1.23;0.35;;;;;;;;;;5065629;28;20377;-75
2021/11/22 11:54:01;;;;;;;0.30;0.30;;;;;;;;;;5047364;28;20493;-75
2021/11/22 11:56:33;;;;;;;0.20;0.20;;;;;;;;;;5065328;28;20060;-75
2021/11/22 11:59:19;;;;;;;0.10;0.10;;;;;;;;;;5047192;28;20025;-75
2021/11/22 12:02:04;;;;;;;0.75;0.30;;;;;;;;;;5047065;28;20101;-75
2021/11/22 12:04:56;;;;;;;1.27;0.20;;;;;;;;;;5032762;28;20111;-76
2021/11/22 12:07:32;;;;;;;0.40;0.25;;;;;;;;;;5065219;28;20048;-75
2021/11/22 12:10:24;;;;;;;0.45;0.20;;;;;;;;;;5065243;28;20021;-75
2021/11/22 12:13:05;;;;;;;1.73;0.38;;;;;;;;;;5046990;28;20036;-75
2021/11/22 12:15:41;;;;;;;1.30;0.30;;;;;;;;;;5046707;28;20108;-75
2021/11/22 12:18:08;;;;;;;0.52;0.20;;;;;;;;;;5046995;28;20036;-74
2021/11/22 12:20:33;;;;;;;1.20;0.38;;;;;;;;;;5064598;28;20035;-75
2021/11/22 12:23:05;;;;;;;0.63;0.30;;;;;;;;;;5064083;28;20085;-75
2021/11/22 12:25:42;;;;;;;0.28;0.25;;;;;;;;;;5064608;28;20512;-74
2021/11/22 12:28:19;;;;;;;3.10;0.40;;;;;;;;;;5064725;28;20060;-75
2021/11/22 12:30:55;;;;;;;2.00;0.60;;;;;;;;;;5064498;28;20040;-74
2021/11/22 12:33:20;;;;;;;2.10;0.30;;;;;;;;;;5064790;28;20008;-75
2021/11/22 12:35:56;;;;;;;0.73;0.32;;;;;;;;;;5046659;28;20048;-75
2021/11/22 12:38:29;;;;;;;0.73;0.25;;;;;;;;;;5064396;28;20055;-74
2021/11/22 12:40:57;;;;;;;0.50;0.30;;;;;;;;;;5064318;28;20029;-74
2021/11/22 12:43:46;;;;;;;0.38;0.22;;;;;;;;;;5046564;28;20028;-75
2021/11/22 12:46:22;;;;;;;2.45;0.30;;;;;;;;;;5064468;28;20021;-74
2021/11/22 12:48:49;;;;;;;0.98;0.20;;;;;;;;;;5064617;28;20048;-75
2021/11/22 12:51:20;;;;;;;0.40;0.22;;;;;;;;;;5063948;28;20083;-74
2021/11/22 12:54:12;;;;;;;1.27;0.40;;;;;;;;;;5046093;28;20025;-74
2021/11/22 12:56:40;;;;;;;5.63;0.50;;;;;;;;;;5058720;28;20051;-74
2021/11/22 12:59:06;;;;;;;2.30;0.30;;;;;;;;;;5063939;28;20037;-74
2021/11/22 13:01:31;;;;;;;1.25;0.50;;;;;;;;;;5064063;28;20021;-74
2021/11/22 13:03:57;;;;;;;1.90;0.43;;;;;;;;;;5063570;28;20082;-74
2021/11/22 13:06:39;;;;;;;0.85;0.30;;;;;;;;;;5063062;28;20281;-74
2021/11/22 13:09:24;;;;;;;0.63;0.20;;;;;;;;;;5063339;28;20035;-74
2021/11/22 13:11:51;;;;;;;0.60;0.20;;;;;;;;;;5063902;28;20093;-74
2021/11/22 13:14:22;;;;;;;1.60;0.32;;;;;;;;;;5063824;28;20326;-74
2021/11/22 13:17:03;;;;;;;0.30;0.30;;;;;;;;;;5045642;28;20033;-75
2021/11/22 13:19:37;;;;;;;0.88;0.20;;;;;;;;;;5063352;28;20032;-74
2021/11/22 13:22:10;;;;;;;0.40;0.32;;;;;;;;;;5063378;28;20382;-74
2021/11/22 13:24:45;;;;;;;0.60;0.30;;;;;;;;;;5064148;28;20055;-74
2021/11/22 13:27:16;;;;;;;0.65;0.28;;;;;;;;;;5045320;28;20041;-74
2021/11/22 13:29:42;;;;;;;0.20;0.20;;;;;;;;;;5063559;28;20017;-74
2021/11/22 13:32:10;;;;;;;0.30;0.20;;;;;;;;;;5063228;28;20036;-74
2021/11/22 13:34:38;;;;;;;0.57;0.22;;;;;;;;;;5045424;28;20028;-74
2021/11/22 13:37:11;;;;;;;0.77;0.30;;;;;;;;;;5045297;28;20135;-74
2021/11/22 13:39:45;;;;;;;0.90;0.40;;;;;;;;;;5045551;28;20428;-74
2021/11/22 13:42:14;;;;;;;0.68;0.30;;;;;;;;;;5045299;28;20032;-74
2021/11/22 13:44:53;;;;;;;0.55;0.28;;;;;;;;;;5063402;28;20033;-74
2021/11/22 13:47:21;;;;;;;0.60;0.35;;;;;;;;;;5045290;28;20395;-74
2021/11/22 13:49:55;;;;;;;1.48;0.43;;;;;;;;;;5045493;28;20029;-74
2021/11/22 13:52:23;;;;;;;1.40;0.40;;;;;;;;;;5063395;28;20057;-75
2021/11/22 13:54:53;;;;;;;2.75;0.40;;;;;;;;;;5063526;28;20056;-74
2021/11/22 13:57:21;;;;;;;0.57;0.30;;;;;;;;;;5044844;28;20052;-74
2021/11/22 13:59:49;;;;;;;0.20;0.20;;;;;;;;;;5045310;28;20044;-74
2021/11/22 14:02:23;;;;;;;0.43;0.25;;;;;;;;;;5063123;28;20036;-74
2021/11/22 14:04:54;;;;;;;2.25;0.50;;;;;;;;;;5063049;28;20361;-74
2021/11/22 14:07:28;;;;;;;1.10;0.40;;;;;;;;;;5045421;28;20029;-74
2021/11/22 14:09:55;;;;;;;0.20;0.20;;;;;;;;;;5063471;28;20029;-74
2021/11/22 14:12:35;;;;;;;1.48;0.28;;;;;;;;;;5062958;28;20088;-74
2021/11/22 14:15:21;;;;;;;0.60;0.30;;;;;;;;;;5063486;28;20421;-74
2021/11/22 14:17:51;;;;;;;0.50;0.20;;;;;;;;;;5063161;28;20033;-74
2021/11/22 14:20:22;;;;;;;1.73;0.35;;;;;;;;;;5063030;28;20040;-75
2021/11/22 14:22:52;;;;;;;1.73;0.40;;;;;;;;;;5062632;28;20029;-74
2021/11/22 14:25:31;;;;;;;0.55;0.25;;;;;;;;;;5063118;28;20075;-75
2021/11/22 14:28:00;;;;;;;1.40;0.40;;;;;;;;;;5062537;28;20053;-74
2021/11/22 14:30:35;;;;;;;0.65;0.40;;;;;;;;;;5044861;28;20029;-75
2021/11/22 14:33:29;;;;;;;0.20;0.20;;;;;;;;;;5063122;28;20025;-75
2021/11/22 14:35:59;;;;;;;2.15;0.22;;;;;;;;;;5060029;28;20052;-75
2021/11/22 14:38:27;;;;;;;0.20;0.20;;;;;;;;;;5062638;28;20035;-75
2021/11/22 14:40:57;;;;;;;0.30;0.30;;;;;;;;;;5063013;28;20491;-75
2021/11/22 14:43:32;;;;;;;0.38;0.30;;;;;;;;;;5062669;28;20025;-75
2021/11/22 14:45:58;;;;;;;0.38;0.30;;;;;;;;;;5064060;28;20021;-75
2021/11/22 14:48:35;;;;;;;0.40;0.20;;;;;;;;;;5047979;28;20051;-75
2021/11/22 14:51:18;;;;;;;0.55;0.32;;;;;;;;;;5066248;28;20043;-75
2021/11/22 14:54:00;;;;;;;0.35;0.35;;;;;;;;;;5048662;28;20033;-75